createdAt,value
2017-10-29T00:00:09.513Z,14.7
2017-10-29T00:01:11.626Z,14.6
2017-10-29T00:02:56.955Z,14.6
2017-10-29T00:03:59.251Z,14.7
2017-10-29T00:05:01.456Z,14.7
2017-10-29T00:06:03.540Z,14.7
2017-10-29T00:07:05.439Z,14.7
2017-10-29T00:08:07.318Z,14.6
2017-10-29T00:09:09.378Z,14.6
2017-10-29T00:10:11.282Z,14.7
2017-10-29T00:11:13.171Z,14.7
2017-10-29T00:12:56.905Z,14.7
2017-10-29T00:14:00.867Z,14.7
2017-10-29T00:15:03.290Z,14.6
2017-10-29T00:16:05.208Z,14.7
2017-10-29T00:17:07.288Z,14.7
2017-10-29T00:18:50.522Z,14.6
2017-10-29T00:20:36.037Z,14.7
2017-10-29T00:21:38.101Z,14.7
2017-10-29T00:23:22.189Z,14.7
2017-10-29T00:25:05.087Z,14.7
2017-10-29T00:26:10.766Z,14.7
2017-10-29T00:27:12.820Z,14.7
2017-10-29T00:28:14.724Z,14.7
2017-10-29T00:29:16.741Z,14.7
2017-10-29T00:30:18.730Z,14.7
2017-10-29T00:32:03.540Z,14.7
2017-10-29T00:33:48.155Z,14.7
2017-10-29T00:35:32.462Z,14.7
2017-10-29T00:36:36.861Z,14.6
2017-10-29T00:37:38.688Z,14.7
2017-10-29T00:38:40.727Z,14.6
2017-10-29T00:40:27.356Z,14.7
2017-10-29T00:42:13.192Z,14.6
2017-10-29T00:43:18.965Z,14.6
2017-10-29T00:44:20.831Z,14.6
2017-10-29T00:46:04.516Z,14.6
2017-10-29T00:47:07.514Z,14.7
2017-10-29T00:48:53.263Z,14.6
2017-10-29T00:49:58.377Z,14.7
2017-10-29T00:51:00.345Z,14.6
2017-10-29T00:52:42.112Z,14.6
2017-10-29T00:54:24.619Z,14.6
2017-10-29T00:56:08.027Z,14.6
2017-10-29T00:57:12.087Z,14.6
2017-10-29T00:58:14.071Z,14.6
2017-10-29T00:59:16.041Z,14.6
2017-10-29T01:00:17.971Z,14.6
2017-10-29T01:01:19.914Z,14.6
2017-10-29T01:03:02.403Z,14.7
2017-10-29T01:04:45.132Z,14.7
2017-10-29T01:05:48.652Z,14.7
2017-10-29T01:06:50.509Z,14.5
2017-10-29T01:07:52.383Z,14.6
2017-10-29T01:08:54.301Z,14.7
2017-10-29T01:10:39.700Z,14.7
2017-10-29T01:11:41.649Z,14.6
2017-10-29T01:12:43.452Z,14.7
2017-10-29T01:13:45.326Z,14.6
2017-10-29T01:14:47.178Z,14.7
2017-10-29T01:15:49.094Z,14.7
2017-10-29T01:17:31.671Z,14.6
2017-10-29T01:18:34.733Z,14.7
2017-10-29T01:19:36.687Z,14.7
2017-10-29T01:20:38.736Z,14.6
2017-10-29T01:21:40.768Z,14.6
2017-10-29T01:22:42.721Z,14.7
2017-10-29T01:23:44.720Z,14.7
2017-10-29T01:24:46.649Z,14.7
2017-10-29T01:25:48.486Z,14.7
2017-10-29T01:27:32.247Z,14.7
2017-10-29T01:28:35.068Z,14.7
2017-10-29T01:29:36.947Z,14.7
2017-10-29T01:30:38.865Z,14.7
2017-10-29T01:31:40.743Z,14.7
2017-10-29T01:33:24.068Z,14.7
2017-10-29T01:34:29.086Z,14.6
2017-10-29T01:35:31.085Z,14.7
2017-10-29T01:36:33.068Z,14.7
2017-10-29T01:37:35.099Z,14.7
2017-10-29T01:39:18.047Z,14.6
2017-10-29T01:40:23.515Z,14.7
2017-10-29T01:41:25.404Z,14.7
2017-10-29T01:42:27.251Z,14.6
2017-10-29T01:43:29.141Z,14.7
2017-10-29T01:44:31.076Z,14.7
2017-10-29T01:45:33.034Z,14.7
2017-10-29T01:46:34.897Z,14.5
2017-10-29T01:47:36.803Z,14.6
2017-10-29T01:48:38.683Z,14.6
2017-10-29T01:49:40.652Z,14.7
2017-10-29T01:50:42.569Z,14.6
2017-10-29T01:51:44.407Z,14.7
2017-10-29T01:53:28.062Z,14.7
2017-10-29T01:54:30.853Z,14.5
2017-10-29T01:56:14.253Z,14.7
2017-10-29T01:57:18.847Z,14.7
2017-10-29T01:58:20.537Z,14.7
2017-10-29T02:00:04.294Z,14.7
2017-10-29T02:01:06.923Z,14.7
2017-10-29T02:02:08.775Z,14.7
2017-10-29T02:03:50.512Z,14.7
2017-10-29T02:04:53.938Z,14.6
2017-10-29T02:05:55.800Z,14.7
2017-10-29T02:06:57.703Z,14.7
2017-10-29T02:07:59.636Z,14.6
2017-10-29T02:09:01.565Z,14.6
2017-10-29T02:10:03.528Z,14.6
2017-10-29T02:11:05.481Z,14.5
2017-10-29T02:12:48.688Z,14.6
2017-10-29T02:13:52.016Z,14.5
2017-10-29T02:14:53.870Z,14.6
2017-10-29T02:15:55.681Z,14.6
2017-10-29T02:16:57.637Z,14.5
2017-10-29T02:18:40.547Z,14.6
2017-10-29T02:20:21.996Z,14.5
2017-10-29T02:21:25.537Z,14.5
2017-10-29T02:22:27.360Z,14.5
2017-10-29T02:23:29.324Z,14.5
2017-10-29T02:24:31.220Z,14.5
2017-10-29T02:25:33.130Z,14.5
2017-10-29T02:26:35.085Z,14.5
2017-10-29T02:27:36.902Z,14.5
2017-10-29T02:28:38.723Z,14.4
2017-10-29T02:30:22.104Z,14.4
2017-10-29T02:31:28.419Z,14.4
2017-10-29T02:32:30.319Z,14.4
2017-10-29T02:34:13.294Z,14.4
2017-10-29T02:35:15.602Z,14.3
2017-10-29T02:36:17.449Z,14.3
2017-10-29T02:37:19.397Z,14.4
2017-10-29T02:38:21.333Z,14.4
2017-10-29T02:39:23.297Z,14.4
2017-10-29T02:40:25.217Z,14.4
2017-10-29T02:41:27.131Z,14.3
2017-10-29T02:42:29.032Z,14.4
2017-10-29T02:43:30.871Z,14.3
2017-10-29T02:44:32.822Z,14.4
2017-10-29T02:45:34.664Z,14.3
2017-10-29T02:46:36.528Z,14.4
2017-10-29T02:47:38.367Z,14.4
2017-10-29T02:48:40.237Z,14.4
2017-10-29T02:49:42.152Z,14.4
2017-10-29T02:50:44.048Z,14.5
2017-10-29T02:51:45.889Z,14.4
2017-10-29T02:52:47.728Z,14.4
2017-10-29T02:54:30.500Z,14.5
2017-10-29T02:55:33.817Z,14.5
2017-10-29T02:56:35.507Z,14.5
2017-10-29T02:57:37.286Z,14.5
2017-10-29T02:58:39.111Z,14.5
2017-10-29T02:59:41.029Z,14.5
2017-10-29T03:00:42.977Z,14.5
2017-10-29T03:01:44.858Z,14.5
2017-10-29T03:02:46.795Z,14.5
2017-10-29T03:03:48.648Z,14.5
2017-10-29T03:04:50.505Z,14.5
2017-10-29T03:05:52.410Z,14.4
2017-10-29T03:06:54.320Z,14.5
2017-10-29T03:07:56.115Z,14.4
2017-10-29T03:08:58.118Z,14.4
2017-10-29T03:10:00.094Z,14.4
2017-10-29T03:11:01.949Z,14.4
2017-10-29T03:12:03.904Z,14.4
2017-10-29T03:13:05.833Z,14.4
2017-10-29T03:14:49.323Z,14.4
2017-10-29T03:15:52.298Z,14.3
2017-10-29T03:16:54.184Z,14.5
2017-10-29T03:17:56.011Z,14.5
2017-10-29T03:18:57.925Z,14.4
2017-10-29T03:19:59.822Z,14.4
2017-10-29T03:21:01.706Z,14.4
2017-10-29T03:22:03.586Z,14.5
2017-10-29T03:23:05.540Z,14.4
2017-10-29T03:24:07.496Z,14.5
2017-10-29T03:25:50.264Z,14.5
2017-10-29T03:26:54.374Z,14.5
2017-10-29T03:27:56.082Z,14.5
2017-10-29T03:28:57.984Z,14.5
2017-10-29T03:29:59.890Z,14.5
2017-10-29T03:31:01.927Z,14.5
2017-10-29T03:32:45.074Z,14.5
2017-10-29T03:34:29.890Z,14.5
2017-10-29T03:35:31.211Z,14.4
2017-10-29T03:36:33.169Z,14.4
2017-10-29T03:37:35.145Z,14.5
2017-10-29T03:38:37.048Z,14.5
2017-10-29T03:40:20.878Z,14.5
2017-10-29T03:41:23.254Z,14.4
2017-10-29T03:43:04.680Z,14.3
2017-10-29T03:44:07.413Z,14.1
2017-10-29T03:45:09.048Z,13.9
2017-10-29T03:46:11.011Z,13.8
2017-10-29T03:47:12.787Z,13.6
2017-10-29T03:48:14.548Z,13.4
2017-10-29T03:49:16.400Z,13.4
2017-10-29T03:50:18.204Z,13.2
2017-10-29T03:51:20.088Z,13.1
2017-10-29T03:52:21.774Z,13.1
2017-10-29T03:53:23.606Z,13.0
2017-10-29T03:54:25.499Z,12.8
2017-10-29T03:55:27.369Z,12.9
2017-10-29T03:56:29.216Z,12.8
2017-10-29T03:57:31.174Z,12.8
2017-10-29T03:58:33.037Z,12.8
2017-10-29T03:59:35.089Z,12.8
2017-10-29T04:00:37.098Z,12.8
2017-10-29T04:01:38.960Z,12.8
2017-10-29T04:02:40.900Z,12.9
2017-10-29T04:03:42.823Z,12.9
2017-10-29T04:04:44.814Z,12.9
2017-10-29T04:05:46.645Z,12.9
2017-10-29T04:06:48.660Z,12.9
2017-10-29T04:07:50.560Z,13.0
2017-10-29T04:08:52.444Z,13.0
2017-10-29T04:09:54.145Z,13.0
2017-10-29T04:10:56.086Z,13.0
2017-10-29T04:12:37.895Z,13.0
2017-10-29T04:13:39.972Z,13.0
2017-10-29T04:14:42.463Z,13.0
2017-10-29T04:15:44.382Z,12.9
2017-10-29T04:16:46.295Z,12.9
2017-10-29T04:17:48.103Z,12.8
2017-10-29T04:18:49.968Z,12.8
2017-10-29T04:19:51.801Z,12.7
2017-10-29T04:20:53.603Z,12.6
2017-10-29T04:21:55.371Z,12.7
2017-10-29T04:22:57.206Z,12.6
2017-10-29T04:23:59.137Z,12.7
2017-10-29T04:25:01.067Z,12.6
2017-10-29T04:26:02.893Z,12.5
2017-10-29T04:27:04.923Z,12.5
2017-10-29T04:28:06.722Z,12.5
2017-10-29T04:29:08.660Z,12.4
2017-10-29T04:30:10.421Z,12.4
2017-10-29T04:31:12.284Z,12.4
2017-10-29T04:32:14.129Z,12.3
2017-10-29T04:33:16.062Z,12.3
2017-10-29T04:34:17.951Z,12.4
2017-10-29T04:35:19.788Z,12.3
2017-10-29T04:36:21.967Z,12.3
2017-10-29T04:37:23.710Z,12.1
2017-10-29T04:38:25.696Z,12.1
2017-10-29T04:39:27.493Z,12.0
2017-10-29T04:40:29.397Z,12.0
2017-10-29T04:41:31.185Z,12.1
2017-10-29T04:42:33.077Z,11.9
2017-10-29T04:43:35.067Z,12.0
2017-10-29T04:44:36.748Z,11.9
2017-10-29T04:45:38.691Z,12.0
2017-10-29T04:46:40.633Z,11.9
2017-10-29T04:47:42.568Z,11.9
2017-10-29T04:48:44.500Z,11.9
2017-10-29T04:49:46.456Z,11.8
2017-10-29T04:50:48.323Z,11.9
2017-10-29T04:51:50.161Z,11.8
2017-10-29T04:52:52.015Z,11.8
2017-10-29T04:53:53.796Z,11.9
2017-10-29T04:54:55.748Z,11.9
2017-10-29T04:55:57.744Z,11.9
2017-10-29T04:56:59.711Z,11.9
2017-10-29T04:58:01.831Z,11.8
2017-10-29T04:59:43.558Z,11.9
2017-10-29T05:00:46.820Z,11.9
2017-10-29T05:01:48.610Z,11.9
2017-10-29T05:02:50.535Z,11.9
2017-10-29T05:03:52.465Z,12.0
2017-10-29T05:04:54.456Z,12.0
2017-10-29T05:05:56.531Z,11.8
2017-10-29T05:06:58.520Z,11.9
2017-10-29T05:08:00.564Z,11.8
2017-10-29T05:09:02.548Z,11.9
2017-10-29T05:10:04.526Z,12.0
2017-10-29T05:11:06.475Z,11.9
2017-10-29T05:12:49.947Z,12.0
2017-10-29T05:13:53.181Z,12.0
2017-10-29T05:14:54.916Z,11.9
2017-10-29T05:15:56.883Z,11.8
2017-10-29T05:16:58.852Z,11.9
2017-10-29T05:18:00.827Z,11.8
2017-10-29T05:19:02.770Z,11.8
2017-10-29T05:20:04.595Z,11.9
2017-10-29T05:21:06.491Z,11.9
2017-10-29T05:22:08.310Z,11.9
2017-10-29T05:23:10.248Z,12.0
2017-10-29T05:24:12.034Z,11.9
2017-10-29T05:25:14.092Z,11.8
2017-10-29T05:26:16.097Z,12.0
2017-10-29T05:27:17.824Z,11.9
2017-10-29T05:28:19.682Z,11.9
2017-10-29T05:29:21.515Z,12.0
2017-10-29T05:30:23.354Z,12.0
2017-10-29T05:31:25.366Z,12.1
2017-10-29T05:32:27.313Z,12.0
2017-10-29T05:33:29.353Z,12.1
2017-10-29T05:34:31.076Z,12.0
2017-10-29T05:35:33.062Z,12.0
2017-10-29T05:36:34.981Z,12.0
2017-10-29T05:37:36.635Z,12.0
2017-10-29T05:38:38.546Z,11.9
2017-10-29T05:39:40.628Z,12.0
2017-10-29T05:40:42.354Z,12.1
2017-10-29T05:41:44.284Z,12.0
2017-10-29T05:42:46.361Z,12.0
2017-10-29T05:43:48.055Z,12.1
2017-10-29T05:44:49.867Z,12.0
2017-10-29T05:45:51.931Z,12.0
2017-10-29T05:46:53.915Z,12.1
2017-10-29T05:47:55.715Z,12.1
2017-10-29T05:48:57.640Z,12.1
2017-10-29T05:49:59.527Z,12.1
2017-10-29T05:51:01.522Z,12.1
2017-10-29T05:52:03.342Z,12.1
2017-10-29T05:53:05.206Z,12.0
2017-10-29T05:54:07.069Z,12.1
2017-10-29T05:55:08.913Z,12.0
2017-10-29T05:56:10.736Z,12.0
2017-10-29T05:57:12.725Z,12.0
2017-10-29T05:58:14.715Z,12.0
2017-10-29T05:59:16.521Z,12.1
2017-10-29T06:00:18.657Z,12.0
2017-10-29T06:01:20.467Z,12.0
2017-10-29T06:02:22.467Z,12.0
2017-10-29T06:03:24.301Z,12.0
2017-10-29T06:04:26.329Z,11.9
2017-10-29T06:05:28.286Z,12.0
2017-10-29T06:06:30.268Z,12.1
2017-10-29T06:07:32.106Z,12.1
2017-10-29T06:08:34.072Z,12.0
2017-10-29T06:09:36.060Z,11.8
2017-10-29T06:10:38.091Z,11.9
2017-10-29T06:11:40.070Z,11.8
2017-10-29T06:12:41.952Z,11.9
2017-10-29T06:13:43.835Z,11.8
2017-10-29T06:14:45.725Z,11.9
2017-10-29T06:15:47.557Z,11.9
2017-10-29T06:16:49.438Z,11.8
2017-10-29T06:17:51.362Z,11.8
2017-10-29T06:18:53.219Z,11.8
2017-10-29T06:19:55.240Z,11.7
2017-10-29T06:20:57.316Z,11.8
2017-10-29T06:21:59.295Z,11.9
2017-10-29T06:23:01.247Z,11.8
2017-10-29T06:24:03.148Z,11.8
2017-10-29T06:25:05.063Z,11.8
2017-10-29T06:26:07.025Z,11.8
2017-10-29T06:27:09.014Z,11.8
2017-10-29T06:28:11.164Z,11.8
2017-10-29T06:29:13.080Z,11.8
2017-10-29T06:30:15.167Z,11.7
2017-10-29T06:31:16.933Z,11.8
2017-10-29T06:32:18.921Z,11.8
2017-10-29T06:33:20.891Z,11.7
2017-10-29T06:34:22.712Z,11.6
2017-10-29T06:35:24.722Z,11.7
2017-10-29T06:36:26.712Z,11.7
2017-10-29T06:37:28.621Z,11.7
2017-10-29T06:38:30.506Z,11.7
2017-10-29T06:39:32.465Z,11.7
2017-10-29T06:40:34.273Z,11.7
2017-10-29T06:41:36.206Z,11.6
2017-10-29T06:42:38.101Z,11.7
2017-10-29T06:43:39.901Z,11.7
2017-10-29T06:44:41.914Z,11.6
2017-10-29T06:45:43.868Z,11.6
2017-10-29T06:46:45.692Z,11.7
2017-10-29T06:47:47.640Z,11.7
2017-10-29T06:48:49.621Z,11.6
2017-10-29T06:49:51.402Z,11.5
2017-10-29T06:50:53.295Z,11.5
2017-10-29T06:51:55.295Z,11.6
2017-10-29T06:52:57.153Z,11.6
2017-10-29T06:53:59.135Z,11.6
2017-10-29T06:55:01.239Z,11.7
2017-10-29T06:56:03.185Z,11.7
2017-10-29T06:57:45.994Z,11.7
2017-10-29T06:58:48.626Z,11.8
2017-10-29T06:59:50.541Z,11.7
2017-10-29T07:00:52.683Z,11.7
2017-10-29T07:02:42.418Z,11.7
2017-10-29T07:03:44.525Z,11.8
2017-10-29T07:04:46.702Z,11.7
2017-10-29T07:05:48.602Z,11.7
2017-10-29T07:06:50.884Z,11.7
2017-10-29T07:07:52.902Z,11.7
2017-10-29T07:08:54.800Z,11.7
2017-10-29T07:09:56.636Z,11.7
2017-10-29T07:10:58.746Z,11.7
2017-10-29T07:12:00.607Z,11.7
2017-10-29T07:13:03.059Z,11.7
2017-10-29T07:14:05.053Z,11.8
2017-10-29T07:15:06.854Z,11.8
2017-10-29T07:16:08.698Z,11.8
2017-10-29T07:17:10.677Z,11.7
2017-10-29T07:18:12.684Z,11.7
2017-10-29T07:19:14.663Z,11.8
2017-10-29T07:20:16.496Z,11.8
2017-10-29T07:21:18.395Z,11.7
2017-10-29T07:22:20.346Z,11.9
2017-10-29T07:23:22.222Z,11.8
2017-10-29T07:24:24.242Z,11.8
2017-10-29T07:25:26.228Z,11.8
2017-10-29T07:26:28.077Z,11.9
2017-10-29T07:27:30.101Z,11.9
2017-10-29T07:28:32.074Z,11.9
2017-10-29T07:29:34.094Z,11.9
2017-10-29T07:30:35.998Z,11.8
2017-10-29T07:31:37.967Z,11.8
2017-10-29T07:32:39.930Z,11.8
2017-10-29T07:33:41.816Z,11.6
2017-10-29T07:34:43.772Z,11.8
2017-10-29T07:35:45.922Z,11.7
2017-10-29T07:36:48.147Z,11.7
2017-10-29T07:37:50.275Z,11.7
2017-10-29T07:39:46.385Z,11.8
2017-10-29T07:40:48.443Z,11.7
2017-10-29T07:41:50.602Z,11.7
2017-10-29T07:42:52.505Z,11.8
2017-10-29T07:43:54.425Z,11.8
2017-10-29T07:44:56.676Z,11.8
2017-10-29T07:46:40.166Z,11.8
2017-10-29T07:47:43.079Z,11.8
2017-10-29T07:48:44.966Z,11.8
2017-10-29T07:49:46.885Z,11.8
2017-10-29T07:51:31.108Z,11.8
2017-10-29T07:53:12.246Z,11.7
2017-10-29T07:54:14.290Z,11.7
2017-10-29T07:55:16.126Z,11.7
2017-10-29T07:56:17.695Z,11.6
2017-10-29T07:57:19.364Z,11.7
2017-10-29T07:58:21.326Z,11.8
2017-10-29T07:59:23.171Z,11.8
2017-10-29T08:00:25.123Z,11.8
2017-10-29T08:01:27.113Z,11.8
2017-10-29T08:02:29.037Z,11.8
2017-10-29T08:03:30.990Z,11.7
2017-10-29T08:04:32.842Z,11.8
2017-10-29T08:05:34.452Z,11.8
2017-10-29T08:06:36.433Z,11.8
2017-10-29T08:07:38.353Z,11.9
2017-10-29T08:08:40.258Z,11.7
2017-10-29T08:09:42.123Z,11.8
2017-10-29T08:10:43.666Z,11.8
2017-10-29T08:11:45.367Z,11.8
2017-10-29T08:12:47.206Z,11.9
2017-10-29T08:13:48.858Z,11.9
2017-10-29T08:14:50.715Z,11.9
2017-10-29T08:15:52.637Z,11.9
2017-10-29T08:16:54.601Z,12.0
2017-10-29T08:17:56.413Z,12.0
2017-10-29T08:18:58.404Z,12.0
2017-10-29T08:20:00.290Z,12.1
2017-10-29T08:21:02.141Z,12.0
2017-10-29T08:22:04.016Z,12.1
2017-10-29T08:23:06.132Z,12.1
2017-10-29T08:24:07.948Z,12.1
2017-10-29T08:25:09.871Z,12.1
2017-10-29T08:26:11.716Z,12.0
2017-10-29T08:27:13.634Z,12.0
2017-10-29T08:28:15.552Z,12.0
2017-10-29T08:29:17.499Z,12.1
2017-10-29T08:30:19.303Z,12.0
2017-10-29T08:31:21.242Z,12.0
2017-10-29T08:32:23.110Z,12.0
2017-10-29T08:33:24.911Z,12.1
2017-10-29T08:34:26.872Z,12.0
2017-10-29T08:35:28.732Z,12.1
2017-10-29T08:36:30.654Z,12.1
2017-10-29T08:37:32.644Z,12.2
2017-10-29T08:38:34.548Z,12.2
2017-10-29T08:39:36.567Z,12.2
2017-10-29T08:40:38.462Z,12.2
2017-10-29T08:41:40.224Z,12.2
2017-10-29T08:42:42.040Z,12.2
2017-10-29T08:43:44.000Z,12.1
2017-10-29T08:44:45.890Z,12.1
2017-10-29T08:45:47.692Z,12.0
2017-10-29T08:46:50.377Z,12.1
2017-10-29T08:47:52.295Z,12.1
2017-10-29T08:48:54.172Z,12.2
2017-10-29T08:49:56.144Z,12.1
2017-10-29T08:50:58.137Z,12.1
2017-10-29T08:52:00.023Z,12.2
2017-10-29T08:53:01.941Z,12.2
2017-10-29T08:54:03.835Z,12.2
2017-10-29T08:55:05.848Z,12.1
2017-10-29T08:56:07.561Z,12.2
2017-10-29T08:57:09.235Z,12.2
2017-10-29T08:58:10.770Z,12.2
2017-10-29T08:59:12.502Z,12.2
2017-10-29T09:00:14.115Z,12.2
2017-10-29T09:01:15.864Z,12.2
2017-10-29T09:02:17.719Z,12.3
2017-10-29T09:03:19.592Z,12.3
2017-10-29T09:04:21.460Z,12.3
2017-10-29T09:05:23.209Z,12.3
2017-10-29T09:06:25.027Z,12.3
2017-10-29T09:07:26.785Z,12.3
2017-10-29T09:08:28.484Z,12.3
2017-10-29T09:09:30.304Z,12.3
2017-10-29T09:10:31.904Z,12.4
2017-10-29T09:11:33.868Z,12.5
2017-10-29T09:12:35.598Z,12.5
2017-10-29T09:13:37.510Z,12.4
2017-10-29T09:14:39.385Z,12.5
2017-10-29T09:15:41.201Z,12.5
2017-10-29T09:16:43.062Z,12.5
2017-10-29T09:17:45.030Z,12.5
2017-10-29T09:18:47.071Z,12.6
2017-10-29T09:19:48.993Z,12.5
2017-10-29T09:20:50.831Z,12.5
2017-10-29T09:21:53.560Z,12.5
2017-10-29T09:22:55.473Z,12.6
2017-10-29T09:23:57.234Z,12.4
2017-10-29T09:24:59.187Z,12.4
2017-10-29T09:26:01.023Z,12.5
2017-10-29T09:27:02.901Z,12.5
2017-10-29T09:28:04.645Z,12.4
2017-10-29T09:29:06.547Z,12.7
2017-10-29T09:30:08.350Z,12.5
2017-10-29T09:31:10.080Z,12.6
2017-10-29T09:32:11.873Z,12.6
2017-10-29T09:33:13.640Z,12.6
2017-10-29T09:34:15.491Z,12.6
2017-10-29T09:35:17.305Z,12.5
2017-10-29T09:36:19.087Z,12.5
2017-10-29T09:37:20.913Z,12.6
2017-10-29T09:38:22.789Z,12.6
2017-10-29T09:39:24.634Z,12.7
2017-10-29T09:40:26.391Z,12.6
2017-10-29T09:41:28.309Z,12.7
2017-10-29T09:42:30.079Z,12.8
2017-10-29T09:43:31.900Z,12.8
2017-10-29T09:44:33.777Z,12.8
2017-10-29T09:45:35.660Z,12.8
2017-10-29T09:46:37.579Z,12.9
2017-10-29T09:47:39.463Z,12.9
2017-10-29T09:48:41.136Z,12.9
2017-10-29T09:49:42.982Z,12.9
2017-10-29T09:50:44.865Z,12.9
2017-10-29T09:51:46.750Z,12.9
2017-10-29T09:52:48.608Z,12.9
2017-10-29T09:53:50.435Z,12.8
2017-10-29T09:54:52.100Z,12.9
2017-10-29T09:55:53.925Z,12.8
2017-10-29T09:56:56.421Z,12.8
2017-10-29T09:57:58.239Z,12.7
2017-10-29T09:59:00.065Z,12.6
2017-10-29T10:00:01.878Z,12.6
2017-10-29T10:01:03.587Z,12.5
2017-10-29T10:02:05.388Z,12.4
2017-10-29T10:03:07.194Z,12.5
2017-10-29T10:04:09.158Z,12.3
2017-10-29T10:05:10.862Z,12.3
2017-10-29T10:06:12.736Z,12.3
2017-10-29T10:07:14.464Z,12.3
2017-10-29T10:08:16.261Z,12.3
2017-10-29T10:09:18.073Z,12.2
2017-10-29T10:10:19.961Z,12.2
2017-10-29T10:11:21.749Z,12.2
2017-10-29T10:12:23.586Z,12.2
2017-10-29T10:13:25.505Z,12.1
2017-10-29T10:14:27.250Z,12.1
2017-10-29T10:15:29.156Z,12.1
2017-10-29T10:16:30.858Z,12.2
2017-10-29T10:17:32.625Z,12.2
2017-10-29T10:18:34.543Z,12.2
2017-10-29T10:19:36.418Z,12.2
2017-10-29T10:20:38.161Z,12.3
2017-10-29T10:21:39.917Z,12.3
2017-10-29T10:22:41.603Z,12.4
2017-10-29T10:23:43.319Z,12.4
2017-10-29T10:24:45.114Z,12.5
2017-10-29T10:25:46.857Z,12.4
2017-10-29T10:26:48.548Z,12.5
2017-10-29T10:27:50.338Z,12.6
2017-10-29T10:28:52.257Z,12.7
2017-10-29T10:29:54.041Z,12.7
2017-10-29T10:30:55.844Z,12.6
2017-10-29T10:31:57.640Z,12.6
2017-10-29T10:33:01.348Z,12.6
2017-10-29T10:34:03.042Z,12.5
2017-10-29T10:35:04.879Z,12.7
2017-10-29T10:36:06.644Z,12.7
2017-10-29T10:37:08.455Z,12.6
2017-10-29T10:38:10.339Z,12.7
2017-10-29T10:39:12.160Z,12.8
2017-10-29T10:40:14.000Z,12.8
2017-10-29T10:41:15.839Z,12.8
2017-10-29T10:42:17.585Z,12.8
2017-10-29T10:43:19.433Z,12.9
2017-10-29T10:44:21.256Z,12.9
2017-10-29T10:45:23.094Z,12.9
2017-10-29T10:46:25.016Z,12.8
2017-10-29T10:47:26.910Z,12.8
2017-10-29T10:48:28.762Z,12.8
2017-10-29T10:49:30.664Z,12.6
2017-10-29T10:50:32.622Z,12.6
2017-10-29T10:51:34.448Z,12.6
2017-10-29T10:52:36.367Z,12.5
2017-10-29T10:53:38.141Z,12.3
2017-10-29T10:54:40.165Z,12.4
2017-10-29T10:55:41.911Z,12.3
2017-10-29T10:56:43.749Z,12.2
2017-10-29T10:57:45.538Z,12.3
2017-10-29T10:58:47.334Z,12.2
2017-10-29T10:59:49.327Z,12.2
2017-10-29T11:00:51.276Z,12.1
2017-10-29T11:01:53.265Z,12.2
2017-10-29T11:02:55.268Z,12.2
2017-10-29T11:03:57.271Z,12.2
2017-10-29T11:04:59.220Z,12.3
2017-10-29T11:06:01.145Z,12.3
2017-10-29T11:07:03.054Z,12.3
2017-10-29T11:08:04.822Z,12.4
2017-10-29T11:09:07.676Z,12.5
2017-10-29T11:10:09.733Z,12.5
2017-10-29T11:11:11.961Z,12.6
2017-10-29T11:12:13.848Z,12.6
2017-10-29T11:13:15.915Z,12.6
2017-10-29T11:14:17.647Z,12.7
2017-10-29T11:15:19.760Z,12.6
2017-10-29T11:16:21.731Z,12.8
2017-10-29T11:17:24.253Z,12.8
2017-10-29T11:18:26.148Z,12.8
2017-10-29T11:19:28.055Z,13.0
2017-10-29T11:20:29.560Z,12.9
2017-10-29T11:21:31.395Z,12.9
2017-10-29T11:22:33.299Z,12.8
2017-10-29T11:23:34.977Z,12.8
2017-10-29T11:24:37.016Z,12.7
2017-10-29T11:25:38.747Z,12.7
2017-10-29T11:26:40.426Z,12.6
2017-10-29T11:27:42.020Z,12.6
2017-10-29T11:28:43.755Z,12.6
2017-10-29T11:29:45.789Z,12.5
2017-10-29T11:30:47.444Z,12.4
2017-10-29T11:31:49.875Z,12.3
2017-10-29T11:32:51.791Z,12.3
2017-10-29T11:33:54.585Z,12.2
2017-10-29T11:34:56.228Z,12.1
2017-10-29T11:35:58.225Z,12.2
2017-10-29T11:37:00.061Z,12.1
2017-10-29T11:38:02.054Z,12.2
2017-10-29T11:39:04.065Z,12.2
2017-10-29T11:40:05.979Z,12.3
2017-10-29T11:41:07.925Z,12.3
2017-10-29T11:42:09.837Z,12.3
2017-10-29T11:43:11.737Z,12.4
2017-10-29T11:44:53.966Z,12.6
2017-10-29T11:45:56.557Z,12.6
2017-10-29T11:46:58.239Z,12.5
2017-10-29T11:47:59.946Z,12.6
2017-10-29T11:49:01.882Z,12.6
2017-10-29T11:50:03.731Z,12.6
2017-10-29T11:51:05.768Z,12.7
2017-10-29T11:52:07.851Z,12.7
2017-10-29T11:53:09.783Z,12.6
2017-10-29T11:54:11.308Z,12.6
2017-10-29T11:55:12.945Z,12.6
2017-10-29T11:56:14.400Z,12.5
2017-10-29T11:57:16.169Z,12.5
2017-10-29T11:58:18.097Z,12.4
2017-10-29T11:59:20.281Z,12.6
2017-10-29T12:00:21.940Z,12.6
2017-10-29T12:01:23.996Z,12.5
2017-10-29T12:02:25.844Z,12.6
2017-10-29T12:03:27.782Z,12.5
2017-10-29T12:04:30.497Z,12.5
2017-10-29T12:05:32.342Z,12.4
2017-10-29T12:06:34.153Z,12.3
2017-10-29T12:07:35.971Z,12.3
2017-10-29T12:08:37.849Z,12.3
2017-10-29T12:09:39.599Z,12.2
2017-10-29T12:10:41.572Z,12.2
2017-10-29T12:11:43.590Z,12.3
2017-10-29T12:12:45.410Z,12.1
2017-10-29T12:13:47.300Z,12.1
2017-10-29T12:14:49.165Z,12.2
2017-10-29T12:15:51.035Z,12.2
2017-10-29T12:16:52.776Z,12.2
2017-10-29T12:17:54.892Z,12.2
2017-10-29T12:18:57.777Z,12.3
2017-10-29T12:20:39.751Z,12.4
2017-10-29T12:21:42.785Z,12.4
2017-10-29T12:22:44.527Z,12.4
2017-10-29T12:23:46.418Z,12.6
2017-10-29T12:24:48.581Z,12.6
2017-10-29T12:25:50.469Z,12.7
2017-10-29T12:26:52.322Z,12.7
2017-10-29T12:27:54.276Z,12.8
2017-10-29T12:28:56.607Z,12.8
2017-10-29T12:29:58.453Z,12.8
2017-10-29T12:31:00.108Z,12.8
2017-10-29T12:32:04.365Z,12.8
2017-10-29T12:33:06.116Z,12.9
2017-10-29T12:34:08.066Z,12.8
2017-10-29T12:35:09.859Z,12.8
2017-10-29T12:36:11.720Z,12.8
2017-10-29T12:37:13.414Z,12.6
2017-10-29T12:38:15.303Z,12.2
2017-10-29T12:39:17.185Z,11.9
2017-10-29T12:40:18.909Z,11.5
2017-10-29T12:41:20.898Z,11.3
2017-10-29T12:42:22.881Z,11.0
2017-10-29T12:43:25.394Z,10.8
2017-10-29T12:44:27.351Z,10.5
2017-10-29T12:45:29.859Z,10.3
2017-10-29T12:46:31.797Z,10.2
2017-10-29T12:47:33.764Z,10.1
2017-10-29T12:48:36.155Z,10.1
2017-10-29T12:49:38.034Z,10.1
2017-10-29T12:50:40.258Z,10.1
2017-10-29T12:51:43.638Z,10.1
2017-10-29T12:52:45.997Z,10.1
2017-10-29T12:53:47.994Z,10.1
2017-10-29T12:54:50.401Z,10.1
2017-10-29T12:55:52.401Z,10.0
2017-10-29T12:56:54.166Z,10.1
2017-10-29T12:57:56.006Z,10.2
2017-10-29T12:58:57.793Z,10.2
2017-10-29T12:59:59.524Z,10.1
2017-10-29T13:01:01.354Z,10.2
2017-10-29T13:02:03.159Z,10.2
2017-10-29T13:03:04.954Z,10.2
2017-10-29T13:04:06.700Z,10.3
2017-10-29T13:05:08.528Z,10.4
2017-10-29T13:06:10.329Z,10.5
2017-10-29T13:07:12.071Z,10.5
2017-10-29T13:08:13.875Z,10.5
2017-10-29T13:09:15.631Z,10.5
2017-10-29T13:10:17.473Z,10.5
2017-10-29T13:11:19.250Z,10.6
2017-10-29T13:12:21.089Z,10.6
2017-10-29T13:13:22.911Z,10.7
2017-10-29T13:14:24.680Z,10.7
2017-10-29T13:15:26.456Z,10.8
2017-10-29T13:16:28.266Z,10.8
2017-10-29T13:17:30.046Z,10.8
2017-10-29T13:18:32.090Z,10.8
2017-10-29T13:19:34.137Z,10.9
2017-10-29T13:20:36.028Z,10.9
2017-10-29T13:21:38.050Z,11.1
2017-10-29T13:22:40.115Z,11.0
2017-10-29T13:23:42.343Z,11.1
2017-10-29T13:24:45.353Z,11.1
2017-10-29T13:25:47.350Z,11.2
2017-10-29T13:26:49.440Z,11.4
2017-10-29T13:27:51.461Z,11.4
2017-10-29T13:28:53.658Z,11.5
2017-10-29T13:29:55.540Z,11.4
2017-10-29T13:30:57.584Z,11.5
2017-10-29T13:31:59.539Z,11.6
2017-10-29T13:33:01.522Z,11.6
2017-10-29T13:34:03.198Z,11.7
2017-10-29T13:35:05.195Z,11.8
2017-10-29T13:36:06.863Z,11.8
2017-10-29T13:37:08.737Z,11.8
2017-10-29T13:38:10.535Z,11.8
2017-10-29T13:39:12.678Z,11.8
2017-10-29T13:40:14.517Z,11.8
2017-10-29T13:41:16.415Z,11.8
2017-10-29T13:42:18.270Z,11.8
2017-10-29T13:43:20.235Z,11.7
2017-10-29T13:44:21.946Z,11.7
2017-10-29T13:45:23.865Z,11.8
2017-10-29T13:46:25.558Z,11.8
2017-10-29T13:47:27.334Z,11.7
2017-10-29T13:48:29.236Z,11.8
2017-10-29T13:49:30.980Z,11.9
2017-10-29T13:50:32.833Z,12.0
2017-10-29T13:51:34.772Z,12.0
2017-10-29T13:52:36.687Z,12.0
2017-10-29T13:53:38.545Z,12.1
2017-10-29T13:54:40.301Z,12.2
2017-10-29T13:55:42.069Z,12.3
2017-10-29T13:56:43.828Z,12.3
2017-10-29T13:57:45.796Z,12.3
2017-10-29T13:58:47.622Z,12.4
2017-10-29T13:59:49.701Z,12.5
2017-10-29T14:00:52.281Z,12.5
2017-10-29T14:01:54.202Z,12.5
2017-10-29T14:02:55.937Z,12.6
2017-10-29T14:03:57.600Z,12.5
2017-10-29T14:04:59.596Z,12.6
2017-10-29T14:06:01.808Z,12.6
2017-10-29T14:07:03.790Z,12.7
2017-10-29T14:08:05.695Z,12.7
2017-10-29T14:09:07.714Z,12.7
2017-10-29T14:10:09.336Z,12.8
2017-10-29T14:11:11.303Z,12.8
2017-10-29T14:12:13.237Z,12.7
2017-10-29T14:13:15.008Z,12.5
2017-10-29T14:14:16.760Z,12.7
2017-10-29T14:15:18.775Z,12.6
2017-10-29T14:16:20.585Z,12.6
2017-10-29T14:17:22.319Z,12.5
2017-10-29T14:18:24.589Z,12.5
2017-10-29T14:19:26.598Z,12.5